createdAt,value
2023-12-09T00:03:24.512Z,-1.40
2023-12-09T00:08:27.807Z,-1.50
2023-12-09T00:13:31.997Z,-1.50
2023-12-09T00:18:34.840Z,-1.50
2023-12-09T00:23:47.165Z,-1.40
2023-12-09T00:28:51.955Z,-1.40
2023-12-09T00:33:54.725Z,-1.40
2023-12-09T00:38:57.633Z,-1.40
2023-12-09T00:44:00.422Z,-1.40
2023-12-09T00:49:03.264Z,-1.50
2023-12-09T00:54:06.063Z,-1.50
2023-12-09T00:59:08.751Z,-1.50
2023-12-09T01:04:11.739Z,-1.40
2023-12-09T01:09:17.416Z,-1.40
2023-12-09T01:14:20.137Z,-1.50
2023-12-09T01:19:23.224Z,-1.50
2023-12-09T01:24:25.933Z,-1.50
2023-12-09T01:29:28.690Z,-1.50
2023-12-09T01:34:31.429Z,-1.60
2023-12-09T01:39:34.433Z,-1.60
2023-12-09T01:44:38.536Z,-1.60
2023-12-09T01:49:42.073Z,-1.60
2023-12-09T01:54:44.834Z,-1.50
2023-12-09T01:59:47.704Z,-1.60
2023-12-09T02:04:52.685Z,-1.60
2023-12-09T02:09:55.359Z,-1.50
2023-12-09T02:15:05.274Z,-1.60
2023-12-09T02:20:12.460Z,-1.50
2023-12-09T02:25:15.272Z,-2.90
2023-12-09T02:30:29.386Z,-1.50
2023-12-09T02:35:37.070Z,-1.30
2023-12-09T02:40:41.936Z,-1.30
2023-12-09T02:45:49.612Z,-1.40
2023-12-09T02:50:52.299Z,-1.40
2023-12-09T02:55:54.981Z,-1.40
2023-12-09T03:00:57.661Z,-1.30
2023-12-09T03:06:00.474Z,-0.20
2023-12-09T03:11:03.141Z,-1.20
2023-12-09T03:16:06.175Z,-1.20
2023-12-09T03:21:08.904Z,-1.20
2023-12-09T03:26:18.507Z,-1.10
2023-12-09T03:31:21.760Z,-1.10
2023-12-09T03:36:24.816Z,-1.00
2023-12-09T03:41:27.625Z,-1.00
2023-12-09T03:46:30.397Z,-0.90
2023-12-09T03:51:33.397Z,-0.90
2023-12-09T03:56:36.205Z,-0.90
2023-12-09T04:01:49.959Z,-1.00
2023-12-09T04:06:52.917Z,-1.00
2023-12-09T04:11:56.066Z,-1.00
2023-12-09T04:16:58.763Z,-1.20
2023-12-09T04:22:01.445Z,-1.20
2023-12-09T04:27:04.689Z,-1.20
2023-12-09T04:32:07.527Z,-1.10
2023-12-09T04:37:10.453Z,-1.20
2023-12-09T04:42:13.440Z,-1.20
2023-12-09T04:47:16.180Z,-1.20
2023-12-09T04:52:18.856Z,-1.20
2023-12-09T04:57:21.699Z,-1.20
2023-12-09T05:02:24.651Z,-1.10
2023-12-09T05:07:29.394Z,-1.20
2023-12-09T05:12:32.276Z,-1.10
2023-12-09T05:17:35.479Z,-1.10
2023-12-09T05:22:38.401Z,-1.00
2023-12-09T05:27:41.041Z,-1.00
2023-12-09T05:32:43.733Z,-0.90
2023-12-09T05:37:46.454Z,-0.90
2023-12-09T05:42:49.316Z,-0.80
2023-12-09T05:47:52.140Z,-0.70
2023-12-09T05:52:54.956Z,-0.70
2023-12-09T05:57:57.655Z,-0.80
2023-12-09T06:03:00.569Z,-0.70
2023-12-09T06:08:03.688Z,-0.60
2023-12-09T06:13:06.329Z,-0.50
2023-12-09T06:18:09.636Z,-0.60
2023-12-09T06:23:12.608Z,-0.60
2023-12-09T06:28:15.250Z,-0.60
2023-12-09T06:33:17.969Z,-0.60
2023-12-09T06:38:20.704Z,-0.50
2023-12-09T06:43:23.479Z,-0.50
2023-12-09T06:48:26.329Z,-0.50
2023-12-09T06:53:29.018Z,-0.50
2023-12-09T06:58:31.962Z,-0.40
2023-12-09T07:03:34.980Z,-0.40
2023-12-09T07:08:37.647Z,-0.30
2023-12-09T07:13:40.682Z,-0.40
2023-12-09T07:18:49.930Z,-0.40
2023-12-09T07:23:52.828Z,-0.50
2023-12-09T07:28:55.954Z,-0.40
2023-12-09T07:34:00.097Z,-0.20
2023-12-09T07:39:03.227Z,0.20
2023-12-09T07:44:05.980Z,-0.10
2023-12-09T07:49:08.812Z,-0.10
2023-12-09T07:54:11.694Z,-0.10
2023-12-09T07:59:14.684Z,0.10
2023-12-09T08:04:17.734Z,0.10
2023-12-09T08:09:20.677Z,0.20
2023-12-09T08:14:23.814Z,0.30
2023-12-09T08:19:26.563Z,0.40
2023-12-09T08:24:29.950Z,0.40
2023-12-09T08:29:32.804Z,0.50
2023-12-09T08:34:35.606Z,0.50
2023-12-09T08:39:40.812Z,0.50
2023-12-09T08:44:43.743Z,0.80
2023-12-09T08:49:46.500Z,0.60
2023-12-09T08:54:49.309Z,0.60
2023-12-09T08:59:52.492Z,0.70
2023-12-09T09:04:55.281Z,0.70
2023-12-09T09:09:58.156Z,0.90
2023-12-09T09:15:04.934Z,0.90
2023-12-09T09:20:11.944Z,1.00
2023-12-09T09:25:16.935Z,1.10
2023-12-09T09:30:24.079Z,1.20
2023-12-09T09:35:26.908Z,1.40
2023-12-09T09:40:29.820Z,1.20
2023-12-09T09:45:33.466Z,1.10
2023-12-09T09:50:43.669Z,1.20
2023-12-09T09:55:47.722Z,1.20
2023-12-09T10:00:51.891Z,1.40
2023-12-09T10:05:54.701Z,1.50
2023-12-09T10:10:57.910Z,1.60
2023-12-09T10:16:00.811Z,1.60
2023-12-09T10:21:06.238Z,1.80
2023-12-09T10:26:10.328Z,1.70
2023-12-09T10:31:13.438Z,1.80
2023-12-09T10:36:17.131Z,1.70
2023-12-09T10:41:19.942Z,1.70
2023-12-09T10:46:22.625Z,1.70
2023-12-09T10:51:25.454Z,1.70
2023-12-09T10:56:28.438Z,1.60
2023-12-09T11:01:31.720Z,1.70
2023-12-09T11:06:38.434Z,1.70
2023-12-09T11:27:41.656Z,1.70
2023-12-09T11:32:51.150Z,1.70
2023-12-09T11:37:58.007Z,1.60
2023-12-09T11:43:04.747Z,1.50
2023-12-09T11:48:09.816Z,1.50
2023-12-09T11:53:13.350Z,1.40
2023-12-09T11:58:17.752Z,1.30
2023-12-09T12:03:21.396Z,1.30
2023-12-09T12:08:24.453Z,1.30
2023-12-09T12:13:27.814Z,1.40
2023-12-09T12:18:32.208Z,1.50
2023-12-09T12:23:37.338Z,1.50
2023-12-09T12:28:41.913Z,1.60
2023-12-09T12:33:46.800Z,1.80
2023-12-09T12:38:51.272Z,1.70
2023-12-09T12:43:54.406Z,1.40
2023-12-09T12:48:57.456Z,1.40
2023-12-09T12:54:00.376Z,1.40
2023-12-09T12:59:03.742Z,1.40
2023-12-09T13:04:06.556Z,1.50
2023-12-09T13:09:14.518Z,1.50
2023-12-09T13:14:17.292Z,1.60
2023-12-09T13:19:20.401Z,1.70
2023-12-09T13:24:23.214Z,1.70
2023-12-09T13:29:26.011Z,1.70
2023-12-09T13:34:28.944Z,3.40
2023-12-09T13:39:32.319Z,1.70
2023-12-09T13:44:36.496Z,1.60
2023-12-09T13:49:42.854Z,1.60
2023-12-09T13:54:47.342Z,1.60
2023-12-09T13:59:50.206Z,1.60
2023-12-09T14:04:53.783Z,1.60
2023-12-09T14:09:56.667Z,1.60
2023-12-09T14:15:00.569Z,1.60
2023-12-09T14:20:05.005Z,1.60
2023-12-09T14:25:09.827Z,1.60
2023-12-09T14:30:13.071Z,1.60
2023-12-09T14:35:16.483Z,1.50
2023-12-09T14:40:19.627Z,1.30
2023-12-09T14:45:22.545Z,1.20
2023-12-09T14:50:25.820Z,1.20
2023-12-09T14:55:29.996Z,1.40
2023-12-09T15:00:35.789Z,1.30
2023-12-09T15:05:38.749Z,1.20
2023-12-09T15:10:41.829Z,1.10
2023-12-09T15:15:45.635Z,1.20
2023-12-09T15:20:49.635Z,1.20
2023-12-09T15:25:52.761Z,1.30
2023-12-09T15:30:56.958Z,1.30
2023-12-09T15:36:00.422Z,1.30
2023-12-09T15:41:03.121Z,1.40
2023-12-09T15:46:06.064Z,1.40
2023-12-09T15:51:08.888Z,1.40
2023-12-09T15:56:11.968Z,1.40
2023-12-09T16:01:14.981Z,1.40
2023-12-09T16:06:17.857Z,1.40
2023-12-09T16:11:20.682Z,1.40
2023-12-09T16:16:25.252Z,1.40
2023-12-09T16:21:28.973Z,1.30
2023-12-09T16:26:34.850Z,1.40
2023-12-09T16:31:39.395Z,1.40
2023-12-09T16:36:42.873Z,1.30
2023-12-09T16:41:45.656Z,1.40
2023-12-09T16:46:51.977Z,1.30
2023-12-09T16:51:54.941Z,1.30
2023-12-09T16:56:58.166Z,1.40
2023-12-09T17:02:01.221Z,1.40
2023-12-09T17:07:04.445Z,1.30
2023-12-09T17:12:07.992Z,1.20
2023-12-09T17:17:11.876Z,1.40
2023-12-09T17:22:15.273Z,1.20
2023-12-09T17:27:19.588Z,1.10
2023-12-09T17:32:22.505Z,1.10
2023-12-09T17:37:25.320Z,0.90
2023-12-09T17:42:28.974Z,1.00
2023-12-09T17:47:32.137Z,1.00
2023-12-09T17:52:37.559Z,0.90
2023-12-09T17:57:41.654Z,0.60
2023-12-09T18:02:45.508Z,0.40
2023-12-09T18:07:50.870Z,0.30
2023-12-09T18:12:54.997Z,0.00
2023-12-09T18:17:59.377Z,-0.20
2023-12-09T18:23:02.851Z,0.10
2023-12-09T18:28:05.773Z,0.20
2023-12-09T18:33:11.392Z,0.60
2023-12-09T18:38:14.398Z,0.80
2023-12-09T18:43:17.415Z,1.00
2023-12-09T18:48:20.863Z,1.00
2023-12-09T18:53:24.052Z,1.20
2023-12-09T18:58:27.902Z,1.20
2023-12-09T19:03:31.866Z,1.20
2023-12-09T19:08:35.617Z,1.20
2023-12-09T19:13:42.361Z,1.20
2023-12-09T19:18:48.643Z,1.00
2023-12-09T19:23:51.752Z,1.00
2023-12-09T19:28:54.732Z,1.10
2023-12-09T19:33:57.760Z,1.10
2023-12-09T19:39:02.589Z,1.10
2023-12-09T19:44:06.271Z,1.10
2023-12-09T19:49:10.285Z,1.10
2023-12-09T19:54:13.275Z,0.90
2023-12-09T19:59:16.082Z,0.90
2023-12-09T20:04:19.082Z,0.90
2023-12-09T20:09:23.050Z,0.90
2023-12-09T20:14:25.778Z,0.90
2023-12-09T20:19:28.616Z,1.00
2023-12-09T20:24:31.743Z,1.00
2023-12-09T20:29:35.301Z,0.80
2023-12-09T20:34:41.389Z,0.70
2023-12-09T20:39:44.281Z,0.50
2023-12-09T20:44:47.204Z,0.40
2023-12-09T20:49:52.107Z,0.00
2023-12-09T20:54:55.013Z,-0.20
2023-12-09T21:00:00.659Z,-0.20
2023-12-09T21:05:04.862Z,-0.30
2023-12-09T21:10:08.476Z,-0.10
2023-12-09T21:15:11.387Z,-0.40
2023-12-09T21:20:14.408Z,-0.40
2023-12-09T21:25:17.435Z,-0.50
2023-12-09T21:30:21.138Z,-0.70
2023-12-09T21:35:23.849Z,-0.70
2023-12-09T21:40:26.815Z,-1.00
2023-12-09T21:45:29.661Z,-1.00
2023-12-09T21:50:32.305Z,-1.00
2023-12-09T21:55:35.097Z,-1.00
2023-12-09T22:00:38.048Z,-1.20
2023-12-09T22:05:41.458Z,-1.30
2023-12-09T22:10:44.313Z,-1.30
2023-12-09T22:15:47.718Z,-1.50
2023-12-09T22:20:51.128Z,-1.60
2023-12-09T22:25:53.889Z,-1.50
2023-12-09T22:30:56.682Z,-1.60
2023-12-09T22:35:59.597Z,-1.70
2023-12-09T22:41:02.750Z,-1.60
2023-12-09T22:46:05.822Z,-1.50
2023-12-09T22:51:19.153Z,-1.60
2023-12-09T22:56:26.171Z,-1.60
2023-12-09T23:01:32.706Z,-1.70
2023-12-09T23:06:35.571Z,-1.70
2023-12-09T23:11:38.710Z,-1.70
2023-12-09T23:16:44.747Z,-1.70
2023-12-09T23:21:48.108Z,-1.20
2023-12-09T23:26:51.692Z,-0.80
2023-12-09T23:31:54.383Z,-0.60
2023-12-09T23:36:57.214Z,-0.40
2023-12-09T23:42:00.636Z,-0.30
2023-12-09T23:47:03.513Z,-0.10
2023-12-09T23:52:06.507Z,0.00
2023-12-09T23:57:09.323Z,0.20
